sensor_id;sensor_type;location;lat;lon;timestamp;pressure;altitude;pressure_sealevel;temperature;humidity
54306;BME280;66145;45.188;5.712;2023-12-04T00:01:28;99382.59;;;20.72;37.16
54306;BME280;66145;45.188;5.712;2023-12-04T00:03:54;99387.16;;;20.76;37.01
54306;BME280;66145;45.188;5.712;2023-12-04T00:06:21;99375.16;;;20.81;37.25
54306;BME280;66145;45.188;5.712;2023-12-04T00:08:46;99376.00;;;20.81;37.04
54306;BME280;66145;45.188;5.712;2023-12-04T00:11:12;99375.66;;;20.83;37.17
54306;BME280;66145;45.188;5.712;2023-12-04T00:13:37;99374.69;;;20.88;36.97
54306;BME280;66145;45.188;5.712;2023-12-04T00:16:03;99373.53;;;20.89;36.91
54306;BME280;66145;45.188;5.712;2023-12-04T00:18:28;99369.84;;;20.93;36.65
54306;BME280;66145;45.188;5.712;2023-12-04T00:20:54;99358.66;;;20.90;36.83
54306;BME280;66145;45.188;5.712;2023-12-04T00:23:19;99346.84;;;20.98;36.57
54306;BME280;66145;45.188;5.712;2023-12-04T00:25:44;99351.53;;;20.97;36.70
54306;BME280;66145;45.188;5.712;2023-12-04T00:28:10;99332.78;;;20.91;36.61
54306;BME280;66145;45.188;5.712;2023-12-04T00:30:35;99348.63;;;21.03;36.88
54306;BME280;66145;45.188;5.712;2023-12-04T00:33:00;99342.78;;;21.04;36.60
54306;BME280;66145;45.188;5.712;2023-12-04T00:35:26;99334.72;;;21.08;36.76
54306;BME280;66145;45.188;5.712;2023-12-04T00:37:51;99340.22;;;21.08;36.57
54306;BME280;66145;45.188;5.712;2023-12-04T00:40:16;99326.91;;;21.10;36.47
54306;BME280;66145;45.188;5.712;2023-12-04T00:42:42;99309.00;;;21.04;36.56
54306;BME280;66145;45.188;5.712;2023-12-04T00:45:07;99307.03;;;21.04;36.71
54306;BME280;66145;45.188;5.712;2023-12-04T00:47:33;99301.06;;;21.02;36.80
54306;BME280;66145;45.188;5.712;2023-12-04T00:49:58;99301.25;;;20.97;36.78
54306;BME280;66145;45.188;5.712;2023-12-04T00:52:24;99297.06;;;20.91;36.81
54306;BME280;66145;45.188;5.712;2023-12-04T00:54:49;99294.00;;;20.84;37.00
54306;BME280;66145;45.188;5.712;2023-12-04T00:57:14;99287.84;;;20.78;37.07
54306;BME280;66145;45.188;5.712;2023-12-04T00:59:40;99286.06;;;20.73;37.45
54306;BME280;66145;45.188;5.712;2023-12-04T01:02:06;99285.44;;;20.76;37.00
54306;BME280;66145;45.188;5.712;2023-12-04T01:04:32;99283.84;;;20.75;36.88
54306;BME280;66145;45.188;5.712;2023-12-04T01:06:58;99289.47;;;20.79;37.06
54306;BME280;66145;45.188;5.712;2023-12-04T01:09:23;99287.22;;;20.81;37.00
54306;BME280;66145;45.188;5.712;2023-12-04T01:11:53;99272.53;;;20.77;37.05
54306;BME280;66145;45.188;5.712;2023-12-04T01:14:19;99281.88;;;20.85;37.05
54306;BME280;66145;45.188;5.712;2023-12-04T01:16:44;99290.94;;;20.85;36.91
54306;BME280;66145;45.188;5.712;2023-12-04T01:19:10;99286.06;;;20.91;36.84
54306;BME280;66145;45.188;5.712;2023-12-04T01:21:35;99282.50;;;20.90;36.74
54306;BME280;66145;45.188;5.712;2023-12-04T01:24:01;99273.75;;;20.97;36.62
54306;BME280;66145;45.188;5.712;2023-12-04T01:26:26;99286.03;;;21.00;36.85
54306;BME280;66145;45.188;5.712;2023-12-04T01:28:51;99283.13;;;20.96;36.68
54306;BME280;66145;45.188;5.712;2023-12-04T01:31:17;99276.03;;;20.95;36.63
54306;BME280;66145;45.188;5.712;2023-12-04T01:33:42;99280.66;;;21.03;36.63
54306;BME280;66145;45.188;5.712;2023-12-04T01:36:08;99282.78;;;21.06;36.76
54306;BME280;66145;45.188;5.712;2023-12-04T01:38:33;99281.00;;;21.02;36.61
54306;BME280;66145;45.188;5.712;2023-12-04T01:40:58;99295.09;;;21.00;36.96
54306;BME280;66145;45.188;5.712;2023-12-04T01:43:24;99293.00;;;20.97;36.81
54306;BME280;66145;45.188;5.712;2023-12-04T01:45:50;99286.69;;;20.88;36.86
54306;BME280;66145;45.188;5.712;2023-12-04T01:48:17;99283.31;;;20.82;37.01
54306;BME280;66145;45.188;5.712;2023-12-04T01:50:43;99279.78;;;20.73;37.00
54306;BME280;66145;45.188;5.712;2023-12-04T01:53:09;99289.16;;;20.72;37.16
54306;BME280;66145;45.188;5.712;2023-12-04T01:55:36;99293.81;;;20.71;37.10
54306;BME280;66145;45.188;5.712;2023-12-04T01:58:03;99284.00;;;20.61;37.18
54306;BME280;66145;45.188;5.712;2023-12-04T02:00:30;99296.56;;;20.71;37.24
54306;BME280;66145;45.188;5.712;2023-12-04T02:02:56;99276.91;;;20.60;37.44
54306;BME280;66145;45.188;5.712;2023-12-04T02:05:22;99295.94;;;20.74;36.88
54306;BME280;66145;45.188;5.712;2023-12-04T02:07:48;99296.44;;;20.76;37.02
54306;BME280;66145;45.188;5.712;2023-12-04T02:10:13;99288.03;;;20.73;36.95
54306;BME280;66145;45.188;5.712;2023-12-04T02:12:39;99307.28;;;20.81;36.84
54306;BME280;66145;45.188;5.712;2023-12-04T02:15:05;99291.56;;;20.82;36.90
54306;BME280;66145;45.188;5.712;2023-12-04T02:17:32;99277.81;;;20.91;36.82
54306;BME280;66145;45.188;5.712;2023-12-04T02:19:57;99268.75;;;20.90;36.88
54306;BME280;66145;45.188;5.712;2023-12-04T02:22:23;99250.16;;;20.87;36.86
54306;BME280;66145;45.188;5.712;2023-12-04T02:24:48;99253.53;;;20.93;36.86
54306;BME280;66145;45.188;5.712;2023-12-04T02:27:22;99245.78;;;20.95;36.93
54306;BME280;66145;45.188;5.712;2023-12-04T02:29:56;99232.81;;;20.95;36.59
54306;BME280;66145;45.188;5.712;2023-12-04T02:32:24;99236.88;;;20.98;36.71
54306;BME280;66145;45.188;5.712;2023-12-04T02:34:54;99229.09;;;21.00;36.90
54306;BME280;66145;45.188;5.712;2023-12-04T02:37:21;99227.47;;;21.08;36.47
54306;BME280;66145;45.188;5.712;2023-12-04T02:39:47;99217.44;;;21.03;36.62
54306;BME280;66145;45.188;5.712;2023-12-04T02:42:14;99201.88;;;21.07;36.53
54306;BME280;66145;45.188;5.712;2023-12-04T02:44:42;99187.13;;;21.12;36.52
54306;BME280;66145;45.188;5.712;2023-12-04T02:47:07;99182.31;;;21.09;36.57
54306;BME280;66145;45.188;5.712;2023-12-04T02:49:33;99165.97;;;21.12;36.63
54306;BME280;66145;45.188;5.712;2023-12-04T02:51:58;99169.38;;;21.09;36.61
54306;BME280;66145;45.188;5.712;2023-12-04T02:54:23;99161.28;;;21.04;36.57
54306;BME280;66145;45.188;5.712;2023-12-04T02:56:50;99165.38;;;20.98;36.56
54306;BME280;66145;45.188;5.712;2023-12-04T02:59:15;99164.28;;;20.90;37.02
54306;BME280;66145;45.188;5.712;2023-12-04T03:01:41;99165.59;;;20.84;36.96
54306;BME280;66145;45.188;5.712;2023-12-04T03:04:06;99174.50;;;20.81;37.48
54306;BME280;66145;45.188;5.712;2023-12-04T03:06:31;99160.09;;;20.84;36.98
54306;BME280;66145;45.188;5.712;2023-12-04T03:08:58;99153.50;;;20.76;37.03
54306;BME280;66145;45.188;5.712;2023-12-04T03:11:25;99145.59;;;20.75;37.03
54306;BME280;66145;45.188;5.712;2023-12-04T03:13:50;99144.75;;;20.74;37.03
54306;BME280;66145;45.188;5.712;2023-12-04T03:16:17;99135.09;;;20.77;37.00
54306;BME280;66145;45.188;5.712;2023-12-04T03:18:42;99104.53;;;20.70;36.98
54306;BME280;66145;45.188;5.712;2023-12-04T03:21:08;99106.25;;;20.83;36.73
54306;BME280;66145;45.188;5.712;2023-12-04T03:23:33;99106.75;;;20.85;36.91
54306;BME280;66145;45.188;5.712;2023-12-04T03:25:58;99120.16;;;20.87;36.68
54306;BME280;66145;45.188;5.712;2023-12-04T03:28:24;99114.03;;;20.81;36.89
54306;BME280;66145;45.188;5.712;2023-12-04T03:30:49;99122.25;;;20.90;36.87
54306;BME280;66145;45.188;5.712;2023-12-04T03:33:14;99095.56;;;20.90;36.94
54306;BME280;66145;45.188;5.712;2023-12-04T03:35:40;99111.66;;;21.01;36.75
54306;BME280;66145;45.188;5.712;2023-12-04T03:38:05;99105.38;;;21.00;36.55
54306;BME280;66145;45.188;5.712;2023-12-04T03:40:31;99102.28;;;21.02;36.55
54306;BME280;66145;45.188;5.712;2023-12-04T03:42:57;99095.34;;;20.95;36.91
54306;BME280;66145;45.188;5.712;2023-12-04T03:45:22;99096.97;;;20.96;36.73
54306;BME280;66145;45.188;5.712;2023-12-04T03:47:47;99083.75;;;20.90;36.89
54306;BME280;66145;45.188;5.712;2023-12-04T03:50:13;99076.03;;;20.83;37.00
54306;BME280;66145;45.188;5.712;2023-12-04T03:52:38;99077.81;;;20.79;37.04
54306;BME280;66145;45.188;5.712;2023-12-04T03:55:04;99086.25;;;20.74;37.11
54306;BME280;66145;45.188;5.712;2023-12-04T03:57:29;99093.06;;;20.67;37.27
54306;BME280;66145;45.188;5.712;2023-12-04T03:59:55;99073.38;;;20.57;37.10
54306;BME280;66145;45.188;5.712;2023-12-04T04:02:20;99074.81;;;20.63;37.28
54306;BME280;66145;45.188;5.712;2023-12-04T04:04:45;99066.41;;;20.68;37.25
54306;BME280;66145;45.188;5.712;2023-12-04T04:07:11;99071.56;;;20.70;36.93
54306;BME280;66145;45.188;5.712;2023-12-04T04:09:36;99068.47;;;20.71;37.00
54306;BME280;66145;45.188;5.712;2023-12-04T04:12:02;99065.88;;;20.75;37.13
54306;BME280;66145;45.188;5.712;2023-12-04T04:14:28;99049.09;;;20.67;36.90
54306;BME280;66145;45.188;5.712;2023-12-04T04:16:53;99062.66;;;20.73;37.00
54306;BME280;66145;45.188;5.712;2023-12-04T04:19:18;99081.41;;;20.79;36.59
54306;BME280;66145;45.188;5.712;2023-12-04T04:21:44;99062.31;;;20.74;36.90
54306;BME280;66145;45.188;5.712;2023-12-04T04:24:09;99076.84;;;20.84;36.84
54306;BME280;66145;45.188;5.712;2023-12-04T04:26:35;99065.31;;;20.90;36.64
54306;BME280;66145;45.188;5.712;2023-12-04T04:29:00;99064.66;;;20.93;36.61
54306;BME280;66145;45.188;5.712;2023-12-04T04:31:26;99045.75;;;20.92;36.49
54306;BME280;66145;45.188;5.712;2023-12-04T04:33:51;99050.69;;;20.99;36.46
54306;BME280;66145;45.188;5.712;2023-12-04T04:36:17;99043.94;;;20.96;36.60
54306;BME280;66145;45.188;5.712;2023-12-04T04:38:42;99038.56;;;21.00;36.45
54306;BME280;66145;45.188;5.712;2023-12-04T04:41:13;99049.25;;;21.01;36.50
54306;BME280;66145;45.188;5.712;2023-12-04T04:43:38;99035.81;;;21.00;36.49
54306;BME280;66145;45.188;5.712;2023-12-04T04:46:04;99037.09;;;21.02;36.43
54306;BME280;66145;45.188;5.712;2023-12-04T04:48:29;99030.91;;;21.05;36.49
54306;BME280;66145;45.188;5.712;2023-12-04T04:50:55;99029.78;;;21.06;36.52
54306;BME280;66145;45.188;5.712;2023-12-04T04:53:20;99022.81;;;21.09;36.46
54306;BME280;66145;45.188;5.712;2023-12-04T04:55:46;99022.00;;;21.08;36.36
54306;BME280;66145;45.188;5.712;2023-12-04T04:58:11;99020.53;;;21.11;36.51
54306;BME280;66145;45.188;5.712;2023-12-04T05:00:36;99008.91;;;21.05;36.37
54306;BME280;66145;45.188;5.712;2023-12-04T05:03:02;99011.53;;;21.02;36.29
54306;BME280;66145;45.188;5.712;2023-12-04T05:05:27;99010.94;;;20.96;36.56
54306;BME280;66145;45.188;5.712;2023-12-04T05:07:52;99000.50;;;20.89;36.73
54306;BME280;66145;45.188;5.712;2023-12-04T05:10:18;98993.56;;;20.83;36.84
54306;BME280;66145;45.188;5.712;2023-12-04T05:12:44;98986.50;;;20.73;37.09
54306;BME280;66145;45.188;5.712;2023-12-04T05:15:09;98958.09;;;20.69;36.94
54306;BME280;66145;45.188;5.712;2023-12-04T05:17:34;98963.88;;;20.76;36.61
54306;BME280;66145;45.188;5.712;2023-12-04T05:20:00;98948.84;;;20.74;36.70
54306;BME280;66145;45.188;5.712;2023-12-04T05:22:25;98945.56;;;20.80;36.91
54306;BME280;66145;45.188;5.712;2023-12-04T05:24:50;98950.44;;;20.75;36.76
54306;BME280;66145;45.188;5.712;2023-12-04T05:27:16;98945.09;;;20.78;36.87
54306;BME280;66145;45.188;5.712;2023-12-04T05:29:41;98956.69;;;20.84;36.80
54306;BME280;66145;45.188;5.712;2023-12-04T05:32:06;98984.31;;;20.88;36.47
54306;BME280;66145;45.188;5.712;2023-12-04T05:34:32;98958.19;;;20.81;36.71
54306;BME280;66145;45.188;5.712;2023-12-04T05:36:57;98972.34;;;20.92;36.55
54306;BME280;66145;45.188;5.712;2023-12-04T05:39:23;98944.69;;;20.89;36.48
54306;BME280;66145;45.188;5.712;2023-12-04T05:41:48;98967.91;;;21.00;36.59
54306;BME280;66145;45.188;5.712;2023-12-04T05:44:13;98973.84;;;21.02;36.28
54306;BME280;66145;45.188;5.712;2023-12-04T05:46:39;98967.69;;;21.05;36.35
54306;BME280;66145;45.188;5.712;2023-12-04T05:49:05;98949.31;;;20.97;36.58
54306;BME280;66145;45.188;5.712;2023-12-04T05:51:30;98949.44;;;21.01;36.65
54306;BME280;66145;45.188;5.712;2023-12-04T05:53:55;98945.56;;;21.02;36.37
54306;BME280;66145;45.188;5.712;2023-12-04T05:56:21;98945.84;;;21.09;36.33
54306;BME280;66145;45.188;5.712;2023-12-04T05:58:46;98957.97;;;21.08;36.30
54306;BME280;66145;45.188;5.712;2023-12-04T06:01:12;98950.72;;;21.03;36.30
54306;BME280;66145;45.188;5.712;2023-12-04T06:03:37;98953.81;;;21.02;36.41
54306;BME280;66145;45.188;5.712;2023-12-04T06:06:02;98975.81;;;21.02;36.30
54306;BME280;66145;45.188;5.712;2023-12-04T06:08:28;98976.22;;;20.91;36.39
54306;BME280;66145;45.188;5.712;2023-12-04T06:10:53;98957.97;;;20.87;36.64
54306;BME280;66145;45.188;5.712;2023-12-04T06:13:19;98965.00;;;20.75;36.45
54306;BME280;66145;45.188;5.712;2023-12-04T06:15:44;98958.84;;;20.78;36.72
54306;BME280;66145;45.188;5.712;2023-12-04T06:18:09;98932.84;;;20.76;36.81
54306;BME280;66145;45.188;5.712;2023-12-04T06:20:35;98943.50;;;20.77;36.53
54306;BME280;66145;45.188;5.712;2023-12-04T06:23:00;98926.22;;;20.77;36.79
54306;BME280;66145;45.188;5.712;2023-12-04T06:25:26;98920.03;;;20.80;36.40
54306;BME280;66145;45.188;5.712;2023-12-04T06:27:52;98913.06;;;20.83;36.54
54306;BME280;66145;45.188;5.712;2023-12-04T06:30:18;98891.28;;;20.77;36.10
54306;BME280;66145;45.188;5.712;2023-12-04T06:32:43;98882.94;;;20.86;36.44
54306;BME280;66145;45.188;5.712;2023-12-04T06:35:10;98894.41;;;20.88;36.29
54306;BME280;66145;45.188;5.712;2023-12-04T06:37:38;98872.91;;;20.90;36.31
54306;BME280;66145;45.188;5.712;2023-12-04T06:40:04;98883.66;;;20.95;36.43
54306;BME280;66145;45.188;5.712;2023-12-04T06:42:30;98863.63;;;20.95;36.17
54306;BME280;66145;45.188;5.712;2023-12-04T06:44:55;98870.63;;;20.92;36.33
54306;BME280;66145;45.188;5.712;2023-12-04T06:47:22;98848.84;;;21.00;36.09
54306;BME280;66145;45.188;5.712;2023-12-04T06:49:48;98859.84;;;21.00;35.90
54306;BME280;66145;45.188;5.712;2023-12-04T06:52:13;98847.59;;;20.97;36.05
54306;BME280;66145;45.188;5.712;2023-12-04T06:54:39;98881.28;;;21.06;36.17
54306;BME280;66145;45.188;5.712;2023-12-04T06:57:04;98872.94;;;21.03;36.22
54306;BME280;66145;45.188;5.712;2023-12-04T06:59:30;98848.28;;;20.94;36.31
54306;BME280;66145;45.188;5.712;2023-12-04T07:01:55;98837.84;;;20.87;36.41
54306;BME280;66145;45.188;5.712;2023-12-04T07:04:21;98855.47;;;20.86;36.56
54306;BME280;66145;45.188;5.712;2023-12-04T07:06:47;98846.16;;;20.78;36.71
54306;BME280;66145;45.188;5.712;2023-12-04T07:09:13;98853.31;;;20.71;36.77
54306;BME280;66145;45.188;5.712;2023-12-04T07:11:39;98853.50;;;20.65;36.87
54306;BME280;66145;45.188;5.712;2023-12-04T07:14:04;98850.16;;;20.60;36.78
54306;BME280;66145;45.188;5.712;2023-12-04T07:16:29;98865.72;;;20.56;36.86
54306;BME280;66145;45.188;5.712;2023-12-04T07:18:55;98880.13;;;20.52;37.00
54306;BME280;66145;45.188;5.712;2023-12-04T07:21:21;98851.78;;;20.40;37.19
54306;BME280;66145;45.188;5.712;2023-12-04T07:23:46;98856.75;;;20.46;37.10
54306;BME280;66145;45.188;5.712;2023-12-04T07:26:11;98853.72;;;20.39;37.34
54306;BME280;66145;45.188;5.712;2023-12-04T07:28:37;98849.53;;;20.42;37.12
54306;BME280;66145;45.188;5.712;2023-12-04T07:31:02;98868.22;;;20.48;36.90
54306;BME280;66145;45.188;5.712;2023-12-04T07:33:28;98865.94;;;20.50;36.95
54306;BME280;66145;45.188;5.712;2023-12-04T07:35:54;98859.91;;;20.57;36.98
54306;BME280;66145;45.188;5.712;2023-12-04T07:38:19;98872.81;;;20.57;36.66
54306;BME280;66145;45.188;5.712;2023-12-04T07:40:45;98866.19;;;20.58;36.83
54306;BME280;66145;45.188;5.712;2023-12-04T07:43:11;98871.19;;;20.56;36.99
54306;BME280;66145;45.188;5.712;2023-12-04T07:45:36;98867.53;;;20.51;37.17
54306;BME280;66145;45.188;5.712;2023-12-04T07:48:05;98846.22;;;20.48;36.90
54306;BME280;66145;45.188;5.712;2023-12-04T07:50:30;98848.09;;;20.35;37.44
54306;BME280;66145;45.188;5.712;2023-12-04T07:52:56;98842.59;;;20.35;37.25
54306;BME280;66145;45.188;5.712;2023-12-04T07:55:21;98854.59;;;20.31;37.11
54306;BME280;66145;45.188;5.712;2023-12-04T07:57:46;98869.47;;;20.30;37.24
54306;BME280;66145;45.188;5.712;2023-12-04T08:00:12;98865.59;;;20.31;37.34
54306;BME280;66145;45.188;5.712;2023-12-04T08:02:39;98875.75;;;20.30;37.09
54306;BME280;66145;45.188;5.712;2023-12-04T08:05:04;98884.81;;;20.31;37.23
54306;BME280;66145;45.188;5.712;2023-12-04T08:07:30;98863.63;;;20.31;37.30
54306;BME280;66145;45.188;5.712;2023-12-04T08:09:55;98860.44;;;20.29;37.19
54306;BME280;66145;45.188;5.712;2023-12-04T08:12:21;98861.50;;;20.37;37.10
54306;BME280;66145;45.188;5.712;2023-12-04T08:14:46;98878.00;;;20.37;37.14
54306;BME280;66145;45.188;5.712;2023-12-04T08:17:11;98875.38;;;20.41;37.08
54306;BME280;66145;45.188;5.712;2023-12-04T08:19:37;98858.41;;;20.39;36.75
54306;BME280;66145;45.188;5.712;2023-12-04T08:22:03;98874.84;;;20.47;37.09
54306;BME280;66145;45.188;5.712;2023-12-04T08:24:28;98871.75;;;20.49;37.09
54306;BME280;66145;45.188;5.712;2023-12-04T08:26:56;98870.88;;;20.57;36.84
54306;BME280;66145;45.188;5.712;2023-12-04T08:29:22;98872.88;;;20.48;37.05
54306;BME280;66145;45.188;5.712;2023-12-04T08:31:47;98880.88;;;20.62;36.76
54306;BME280;66145;45.188;5.712;2023-12-04T08:34:12;98895.06;;;20.64;36.79
54306;BME280;66145;45.188;5.712;2023-12-04T08:36:38;98892.19;;;20.60;36.81
54306;BME280;66145;45.188;5.712;2023-12-04T08:39:03;98894.19;;;20.72;36.57
54306;BME280;66145;45.188;5.712;2023-12-04T08:41:29;98914.25;;;20.73;36.65
54306;BME280;66145;45.188;5.712;2023-12-04T08:43:54;98901.16;;;20.70;36.75
54306;BME280;66145;45.188;5.712;2023-12-04T08:46:20;98911.44;;;20.60;36.85
54306;BME280;66145;45.188;5.712;2023-12-04T08:48:46;98920.13;;;20.62;36.81
54306;BME280;66145;45.188;5.712;2023-12-04T08:51:17;98907.75;;;20.56;37.05
54306;BME280;66145;45.188;5.712;2023-12-04T08:53:43;98910.69;;;20.51;36.78
54306;BME280;66145;45.188;5.712;2023-12-04T08:56:09;98894.72;;;20.44;37.16
54306;BME280;66145;45.188;5.712;2023-12-04T08:58:35;98892.47;;;20.46;37.16
54306;BME280;66145;45.188;5.712;2023-12-04T09:01:00;98887.44;;;20.48;36.97
54306;BME280;66145;45.188;5.712;2023-12-04T09:03:25;98892.94;;;20.48;36.77
54306;BME280;66145;45.188;5.712;2023-12-04T09:05:51;98894.06;;;20.47;37.17
54306;BME280;66145;45.188;5.712;2023-12-04T09:08:20;98881.72;;;20.54;36.96
54306;BME280;66145;45.188;5.712;2023-12-04T09:10:45;98893.19;;;20.56;36.88
54306;BME280;66145;45.188;5.712;2023-12-04T09:13:12;98859.22;;;20.60;36.62
54306;BME280;66145;45.188;5.712;2023-12-04T09:15:38;98864.72;;;20.60;36.71
54306;BME280;66145;45.188;5.712;2023-12-04T09:18:03;98880.31;;;20.69;36.58
54306;BME280;66145;45.188;5.712;2023-12-04T09:20:29;98867.47;;;20.60;36.55
54306;BME280;66145;45.188;5.712;2023-12-04T09:22:54;98860.41;;;20.72;36.45
54306;BME280;66145;45.188;5.712;2023-12-04T09:25:19;98874.16;;;20.72;36.49
54306;BME280;66145;45.188;5.712;2023-12-04T09:27:45;98888.53;;;20.77;36.61
54306;BME280;66145;45.188;5.712;2023-12-04T09:30:11;98887.50;;;20.82;36.33
54306;BME280;66145;45.188;5.712;2023-12-04T09:32:37;98870.06;;;20.78;36.45
54306;BME280;66145;45.188;5.712;2023-12-04T09:35:02;98892.81;;;20.87;36.33
54306;BME280;66145;45.188;5.712;2023-12-04T09:37:27;98907.97;;;20.93;36.37
54306;BME280;66145;45.188;5.712;2023-12-04T09:39:53;98906.00;;;20.94;36.30
54306;BME280;66145;45.188;5.712;2023-12-04T09:42:19;98905.66;;;20.95;36.33
54306;BME280;66145;45.188;5.712;2023-12-04T09:44:46;98895.22;;;20.89;35.87
54306;BME280;66145;45.188;5.712;2023-12-04T09:47:13;98916.44;;;21.01;36.44
54306;BME280;66145;45.188;5.712;2023-12-04T09:49:40;98909.47;;;21.03;36.20
54306;BME280;66145;45.188;5.712;2023-12-04T09:52:06;98905.47;;;21.01;36.16
54306;BME280;66145;45.188;5.712;2023-12-04T09:54:33;98910.97;;;21.01;36.14
54306;BME280;66145;45.188;5.712;2023-12-04T09:57:01;98900.03;;;20.92;36.31
54306;BME280;66145;45.188;5.712;2023-12-04T09:59:27;98897.16;;;20.88;36.56
54306;BME280;66145;45.188;5.712;2023-12-04T10:01:55;98895.44;;;20.84;36.77
54306;BME280;66145;45.188;5.712;2023-12-04T10:04:21;98891.44;;;20.72;36.81
54306;BME280;66145;45.188;5.712;2023-12-04T10:06:49;98894.41;;;20.67;36.80
54306;BME280;66145;45.188;5.712;2023-12-04T10:09:16;98886.22;;;20.58;37.09
54306;BME280;66145;45.188;5.712;2023-12-04T10:11:47;98874.31;;;20.54;37.16
54306;BME280;66145;45.188;5.712;2023-12-04T10:14:15;98864.44;;;20.53;36.83
54306;BME280;66145;45.188;5.712;2023-12-04T10:16:41;98878.13;;;20.62;37.23
54306;BME280;66145;45.188;5.712;2023-12-04T10:21:42;98864.50;;;20.65;36.96
54306;BME280;66145;45.188;5.712;2023-12-04T10:24:07;98854.31;;;20.66;37.03
54306;BME280;66145;45.188;5.712;2023-12-04T10:26:33;98843.34;;;20.66;37.01
54306;BME280;66145;45.188;5.712;2023-12-04T10:29:03;98835.69;;;20.72;37.11
54306;BME280;66145;45.188;5.712;2023-12-04T10:31:33;98838.44;;;20.72;36.80
54306;BME280;66145;45.188;5.712;2023-12-04T10:34:00;98824.97;;;20.79;37.20
54306;BME280;66145;45.188;5.712;2023-12-04T10:36:25;98821.41;;;20.78;36.89
54306;BME280;66145;45.188;5.712;2023-12-04T10:39:01;98802.53;;;20.77;37.09
54306;BME280;66145;45.188;5.712;2023-12-04T10:41:30;98795.00;;;20.86;36.92
54306;BME280;66145;45.188;5.712;2023-12-04T10:43:56;98797.75;;;20.86;36.79
54306;BME280;66145;45.188;5.712;2023-12-04T10:46:25;98798.09;;;20.85;36.82
54306;BME280;66145;45.188;5.712;2023-12-04T10:48:52;98786.19;;;20.93;36.71
54306;BME280;66145;45.188;5.712;2023-12-04T10:51:18;98777.25;;;20.96;36.67
54306;BME280;66145;45.188;5.712;2023-12-04T10:53:44;98769.00;;;20.96;36.75
54306;BME280;66145;45.188;5.712;2023-12-04T10:56:25;98760.75;;;20.96;36.59
54306;BME280;66145;45.188;5.712;2023-12-04T10:58:53;98751.50;;;21.01;36.68
54306;BME280;66145;45.188;5.712;2023-12-04T11:01:21;98743.34;;;21.04;36.73
54306;BME280;66145;45.188;5.712;2023-12-04T11:03:52;98738.00;;;21.08;36.76
54306;BME280;66145;45.188;5.712;2023-12-04T11:06:20;98716.56;;;21.01;36.76
54306;BME280;66145;45.188;5.712;2023-12-04T11:08:48;98735.47;;;21.03;36.46
54306;BME280;66145;45.188;5.712;2023-12-04T11:11:19;98730.31;;;21.01;36.77
54306;BME280;66145;45.188;5.712;2023-12-04T11:13:54;98725.03;;;20.96;36.96
54306;BME280;66145;45.188;5.712;2023-12-04T11:19:11;98707.25;;;20.81;37.40
54306;BME280;66145;45.188;5.712;2023-12-04T11:21:39;98716.03;;;20.74;37.22
54306;BME280;66145;45.188;5.712;2023-12-04T11:24:07;98722.06;;;20.67;37.16
54306;BME280;66145;45.188;5.712;2023-12-04T11:26:33;98706.63;;;20.63;37.48
54306;BME280;66145;45.188;5.712;2023-12-04T11:29:00;98711.66;;;20.61;37.61
54306;BME280;66145;45.188;5.712;2023-12-04T11:31:26;98719.44;;;20.71;37.24
54306;BME280;66145;45.188;5.712;2023-12-04T11:33:51;98708.34;;;20.67;37.19
54306;BME280;66145;45.188;5.712;2023-12-04T11:36:17;98699.78;;;20.69;37.22
54306;BME280;66145;45.188;5.712;2023-12-04T11:38:46;98688.78;;;20.69;37.41
54306;BME280;66145;45.188;5.712;2023-12-04T11:41:24;98705.84;;;20.75;37.47
54306;BME280;66145;45.188;5.712;2023-12-04T11:43:50;98712.47;;;20.74;37.30
54306;BME280;66145;45.188;5.712;2023-12-04T11:46:21;98724.56;;;20.81;37.07
54306;BME280;66145;45.188;5.712;2023-12-04T11:48:48;98716.53;;;20.89;37.10
54306;BME280;66145;45.188;5.712;2023-12-04T11:51:44;98722.38;;;20.87;37.16
54306;BME280;66145;45.188;5.712;2023-12-04T11:54:00;98707.50;;;20.88;37.13
54306;BME280;66145;45.188;5.712;2023-12-04T11:56:26;98708.75;;;20.91;37.10
54306;BME280;66145;45.188;5.712;2023-12-04T11:58:51;98704.28;;;20.86;37.21
54306;BME280;66145;45.188;5.712;2023-12-04T12:01:17;98707.59;;;20.92;37.11
54306;BME280;66145;45.188;5.712;2023-12-04T12:03:44;98705.53;;;20.89;37.05
54306;BME280;66145;45.188;5.712;2023-12-04T12:06:09;98693.50;;;20.81;37.08
54306;BME280;66145;45.188;5.712;2023-12-04T12:08:34;98685.50;;;20.76;37.31
54306;BME280;66145;45.188;5.712;2023-12-04T12:11:00;98695.06;;;20.70;37.56
54306;BME280;66145;45.188;5.712;2023-12-04T12:13:26;98717.59;;;20.63;37.77
54306;BME280;66145;45.188;5.712;2023-12-04T12:15:52;98711.19;;;20.59;37.90
54306;BME280;66145;45.188;5.712;2023-12-04T12:18:17;98708.53;;;20.50;37.62
54306;BME280;66145;45.188;5.712;2023-12-04T12:20:43;98717.44;;;20.47;37.79
54306;BME280;66145;45.188;5.712;2023-12-04T12:23:11;98711.81;;;20.43;38.03
54306;BME280;66145;45.188;5.712;2023-12-04T12:25:37;98708.59;;;20.41;37.82
54306;BME280;66145;45.188;5.712;2023-12-04T12:28:06;98706.53;;;20.38;38.03
54306;BME280;66145;45.188;5.712;2023-12-04T12:30:33;98718.53;;;20.33;37.71
54306;BME280;66145;45.188;5.712;2023-12-04T12:32:58;98711.31;;;20.29;38.21
54306;BME280;66145;45.188;5.712;2023-12-04T12:35:24;98721.84;;;20.27;38.29
54306;BME280;66145;45.188;5.712;2023-12-04T12:37:50;98709.59;;;20.24;38.25
54306;BME280;66145;45.188;5.712;2023-12-04T12:40:20;98703.97;;;20.20;38.08
54306;BME280;66145;45.188;5.712;2023-12-04T12:42:45;98696.19;;;20.23;38.05
54306;BME280;66145;45.188;5.712;2023-12-04T12:45:11;98697.47;;;20.25;37.97
54306;BME280;66145;45.188;5.712;2023-12-04T12:47:37;98710.84;;;20.27;38.09
54306;BME280;66145;45.188;5.712;2023-12-04T12:50:08;98689.00;;;20.30;37.96
54306;BME280;66145;45.188;5.712;2023-12-04T12:52:35;98695.78;;;20.33;37.89
54306;BME280;66145;45.188;5.712;2023-12-04T12:55:00;98685.13;;;20.31;37.86
54306;BME280;66145;45.188;5.712;2023-12-04T12:57:26;98690.59;;;20.31;37.96
54306;BME280;66145;45.188;5.712;2023-12-04T12:59:52;98688.88;;;20.27;38.08